VTK601 UHMM-UHHH
Flight info
| Callsign | VTK601 |
|---|---|
| Flight time | N/A |
| Altitude | 36000 |
| Route | BANOT5E BANOT L160 NA N222 TOMSU TOMSU6D |
| Aircraft | MD11/H-SDE1E2E3FGHIJ2J3J4J5M1RWXY/LB1D1 |
Departure
| Time | 2026-04-27 09:39 |
|---|---|
| Airport | Sokol Airport (UHMM) |
Arrival
| Time | N/A |
|---|---|
| Airport | Khabarovsk Novy Airport (UHHH) |
| Time | Latitude | Longitude | Altitude | Speed | Heading |
|---|---|---|---|---|---|
| 2026-04-27 09:26 | 59.91330 | 150.73355 | 590 ft | 0 kts | 183° |
| 2026-04-27 09:34 | 59.91327 | 150.73355 | 590 ft | 3 kts | 183° |
| 2026-04-27 09:35 | 59.91261 | 150.73319 | 590 ft | 16 kts | 207° |
| 2026-04-27 09:35 | 59.91170 | 150.73131 | 590 ft | 21 kts | 231° |
| 2026-04-27 09:35 | 59.91106 | 150.73011 | 593 ft | 4 kts | 188° |
| 2026-04-27 09:35 | 59.91082 | 150.73041 | 593 ft | 8 kts | 133° |
| 2026-04-27 09:36 | 59.91060 | 150.73266 | 591 ft | 27 kts | 92° |
| 2026-04-27 09:36 | 59.91049 | 150.73762 | 588 ft | 44 kts | 93° |
| 2026-04-27 09:36 | 59.91032 | 150.74383 | 590 ft | 44 kts | 93° |
| 2026-04-27 09:36 | 59.91022 | 150.74843 | 592 ft | 20 kts | 92° |
| 2026-04-27 09:37 | 59.91056 | 150.74946 | 592 ft | 6 kts | 22° |
| 2026-04-27 09:37 | 59.91076 | 150.74998 | 592 ft | 5 kts | 71° |
| 2026-04-27 09:37 | 59.91067 | 150.75063 | 592 ft | 5 kts | 127° |
| 2026-04-27 09:37 | 59.91038 | 150.75075 | 593 ft | 4 kts | 190° |
| 2026-04-27 09:38 | 59.91021 | 150.75028 | 592 ft | 5 kts | 251° |
| 2026-04-27 09:38 | 59.91021 | 150.74908 | 592 ft | 25 kts | 273° |
| 2026-04-27 09:38 | 59.91048 | 150.73892 | 587 ft | 119 kts | 272° |
| 2026-04-27 09:38 | 59.91110 | 150.71760 | 738 ft | 175 kts | 274° |
| 2026-04-27 09:39 | 59.91170 | 150.69258 | 1504 ft | 185 kts | 274° |
| 2026-04-27 09:39 | 59.91235 | 150.66670 | 2579 ft | 187 kts | 276° |
| 2026-04-27 09:39 | 59.91303 | 150.64147 | 3759 ft | 179 kts | 276° |
| 2026-04-27 09:39 | 59.91375 | 150.61570 | 4475 ft | 201 kts | 275° |
| 2026-04-27 09:40 | 59.91455 | 150.58599 | 4769 ft | 229 kts | 274° |
| 2026-04-27 09:40 | 59.91546 | 150.55234 | 4941 ft | 256 kts | 275° |
| 2026-04-27 09:40 | 59.91641 | 150.51645 | 5768 ft | 260 kts | 274° |
| 2026-04-27 09:40 | 59.91705 | 150.48011 | 6701 ft | 265 kts | 270° |
| 2026-04-27 09:41 | 59.91410 | 150.44364 | 7559 ft | 271 kts | 256° |
| 2026-04-27 09:41 | 59.90838 | 150.40756 | 8417 ft | 276 kts | 252° |
| 2026-04-27 09:41 | 59.90195 | 150.37118 | 9301 ft | 281 kts | 251° |
| 2026-04-27 09:41 | 59.89533 | 150.33424 | 10169 ft | 287 kts | 252° |
| 2026-04-27 09:42 | 59.88830 | 150.29489 | 10378 ft | 317 kts | 251° |
| 2026-04-27 09:42 | 59.88059 | 150.25164 | 10524 ft | 346 kts | 251° |
| 2026-04-27 09:42 | 59.87237 | 150.20564 | 11141 ft | 356 kts | 251° |
| 2026-04-27 09:42 | 59.86401 | 150.15901 | 12014 ft | 360 kts | 251° |
| 2026-04-27 09:43 | 59.85564 | 150.11245 | 12883 ft | 364 kts | 251° |
| 2026-04-27 09:43 | 59.84705 | 150.06472 | 13768 ft | 369 kts | 251° |
| 2026-04-27 09:43 | 59.83835 | 150.01635 | 14544 ft | 373 kts | 251° |
| 2026-04-27 09:43 | 59.82954 | 149.96749 | 15306 ft | 378 kts | 251° |
| 2026-04-27 09:44 | 59.82058 | 149.91795 | 16054 ft | 383 kts | 251° |
| 2026-04-27 09:44 | 59.81152 | 149.86782 | 16804 ft | 388 kts | 251° |
| 2026-04-27 09:44 | 59.80231 | 149.81711 | 17533 ft | 393 kts | 251° |
| 2026-04-27 09:44 | 59.79298 | 149.76574 | 18247 ft | 398 kts | 251° |
| 2026-04-27 09:45 | 59.78350 | 149.71376 | 18890 ft | 402 kts | 251° |
| 2026-04-27 09:45 | 59.77390 | 149.66137 | 19523 ft | 406 kts | 251° |
| 2026-04-27 09:45 | 59.76417 | 149.60844 | 20153 ft | 410 kts | 251° |
| 2026-04-27 09:45 | 59.75431 | 149.55502 | 20755 ft | 414 kts | 251° |
| 2026-04-27 09:46 | 59.74436 | 149.50112 | 21384 ft | 418 kts | 251° |
| 2026-04-27 09:46 | 59.73771 | 149.46514 | 21791 ft | 421 kts | 251° |
| 2026-04-27 09:46 | 59.72758 | 149.41045 | 22414 ft | 425 kts | 251° |
| 2026-04-27 09:46 | 59.71732 | 149.35525 | 23047 ft | 429 kts | 251° |
| 2026-04-27 09:47 | 59.70693 | 149.29958 | 23674 ft | 433 kts | 251° |
| 2026-04-27 09:47 | 59.69641 | 149.24337 | 24182 ft | 437 kts | 251° |
| 2026-04-27 09:47 | 59.68517 | 149.18716 | 24664 ft | 442 kts | 246° |
| 2026-04-27 09:47 | 59.66918 | 149.13496 | 25144 ft | 447 kts | 233° |
| 2026-04-27 09:48 | 59.64751 | 149.09009 | 25556 ft | 455 kts | 223° |
| 2026-04-27 09:48 | 59.62302 | 149.05002 | 26039 ft | 459 kts | 219° |
| 2026-04-27 09:48 | 59.59755 | 149.01141 | 26516 ft | 463 kts | 218° |
| 2026-04-27 09:48 | 59.57191 | 148.97264 | 26990 ft | 466 kts | 219° |
| 2026-04-27 09:49 | 59.54629 | 148.93306 | 27453 ft | 470 kts | 219° |
| 2026-04-27 09:49 | 59.52069 | 148.89259 | 27913 ft | 473 kts | 220° |
| 2026-04-27 09:49 | 59.49509 | 148.85147 | 28360 ft | 477 kts | 220° |
| 2026-04-27 09:49 | 59.46940 | 148.80988 | 28792 ft | 480 kts | 220° |
| 2026-04-27 09:50 | 59.44358 | 148.76798 | 29184 ft | 483 kts | 220° |
| 2026-04-27 09:50 | 59.41759 | 148.72585 | 29562 ft | 486 kts | 221° |
| 2026-04-27 09:50 | 59.39136 | 148.68349 | 29918 ft | 490 kts | 221° |
| 2026-04-27 09:50 | 59.36492 | 148.64090 | 30274 ft | 493 kts | 221° |
| 2026-04-27 09:51 | 59.33829 | 148.59809 | 30603 ft | 496 kts | 221° |
| 2026-04-27 09:51 | 59.31156 | 148.55521 | 30994 ft | 497 kts | 221° |
| 2026-04-27 09:51 | 59.28478 | 148.51239 | 31428 ft | 496 kts | 221° |
| 2026-04-27 09:51 | 59.25810 | 148.46975 | 31872 ft | 495 kts | 220° |
| 2026-04-27 09:52 | 59.23142 | 148.42727 | 32298 ft | 494 kts | 220° |
| 2026-04-27 09:52 | 59.20476 | 148.38489 | 32710 ft | 494 kts | 220° |
| 2026-04-27 09:52 | 59.17811 | 148.34262 | 33122 ft | 493 kts | 220° |
| 2026-04-27 09:52 | 59.15145 | 148.30043 | 33478 ft | 493 kts | 220° |
| 2026-04-27 09:53 | 59.12482 | 148.25838 | 33842 ft | 493 kts | 220° |
| 2026-04-27 09:53 | 59.09819 | 148.21642 | 34189 ft | 493 kts | 220° |
| 2026-04-27 09:53 | 59.07187 | 148.17503 | 34478 ft | 492 kts | 220° |
| 2026-04-27 09:53 | 59.04515 | 148.13345 | 34765 ft | 492 kts | 220° |
| 2026-04-27 09:54 | 59.01839 | 148.09209 | 35051 ft | 492 kts | 220° |
| 2026-04-27 09:54 | 58.99163 | 148.05073 | 35320 ft | 491 kts | 220° |
| 2026-04-27 09:54 | 58.96492 | 148.00940 | 35585 ft | 491 kts | 220° |
| 2026-04-27 09:54 | 58.93824 | 147.96808 | 35844 ft | 491 kts | 220° |
| 2026-04-27 09:55 | 58.91157 | 147.92677 | 36019 ft | 492 kts | 220° |
| 2026-04-27 09:55 | 58.83121 | 147.80258 | 36083 ft | 490 kts | 220° |
| 2026-04-27 09:56 | 58.77790 | 147.72066 | 36088 ft | 490 kts | 220° |
| 2026-04-27 09:56 | 58.72439 | 147.63916 | 36091 ft | 490 kts | 220° |
| 2026-04-27 09:57 | 58.67125 | 147.55830 | 36091 ft | 490 kts | 220° |
| 2026-04-27 09:57 | 58.61797 | 147.47733 | 36093 ft | 488 kts | 220° |
| 2026-04-27 09:58 | 58.56464 | 147.39656 | 36100 ft | 488 kts | 220° |
| 2026-04-27 09:58 | 58.51127 | 147.31601 | 36096 ft | 488 kts | 219° |
| 2026-04-27 09:59 | 58.45790 | 147.23580 | 36095 ft | 488 kts | 219° |
| 2026-04-27 09:59 | 58.40442 | 147.15574 | 36086 ft | 488 kts | 220° |
| 2026-04-27 10:00 | 58.35085 | 147.07588 | 36102 ft | 489 kts | 219° |
| 2026-04-27 10:00 | 58.29715 | 146.99616 | 36099 ft | 489 kts | 219° |
| 2026-04-27 10:01 | 58.24385 | 146.91735 | 36101 ft | 489 kts | 219° |
| 2026-04-27 10:01 | 58.19011 | 146.83817 | 36096 ft | 489 kts | 219° |
| 2026-04-27 10:02 | 58.13633 | 146.75922 | 36100 ft | 489 kts | 219° |
| 2026-04-27 10:02 | 58.08233 | 146.68097 | 36102 ft | 488 kts | 219° |
| 2026-04-27 10:03 | 58.02837 | 146.60323 | 36101 ft | 488 kts | 219° |
| 2026-04-27 10:03 | 57.97450 | 146.52535 | 36102 ft | 488 kts | 219° |
| 2026-04-27 10:04 | 57.92066 | 146.44758 | 36102 ft | 488 kts | 219° |
| 2026-04-27 10:04 | 57.86682 | 146.37012 | 36104 ft | 487 kts | 219° |
| 2026-04-27 10:05 | 57.81337 | 146.29347 | 36109 ft | 487 kts | 219° |
| 2026-04-27 10:05 | 57.75945 | 146.21645 | 36111 ft | 487 kts | 219° |
| 2026-04-27 10:06 | 57.70548 | 146.13970 | 36113 ft | 487 kts | 219° |
| 2026-04-27 10:06 | 57.65146 | 146.06316 | 36103 ft | 487 kts | 219° |
| 2026-04-27 10:07 | 57.59743 | 145.98690 | 36113 ft | 487 kts | 219° |
| 2026-04-27 10:07 | 57.54342 | 145.91095 | 36116 ft | 486 kts | 219° |
| 2026-04-27 10:08 | 57.48974 | 145.83575 | 36121 ft | 486 kts | 219° |
| 2026-04-27 10:08 | 57.43557 | 145.76053 | 36120 ft | 486 kts | 219° |
| 2026-04-27 10:09 | 57.38113 | 145.68572 | 36119 ft | 486 kts | 219° |
| 2026-04-27 10:09 | 57.32691 | 145.61096 | 36122 ft | 486 kts | 219° |
| 2026-04-27 10:10 | 57.27266 | 145.53614 | 36127 ft | 486 kts | 219° |
| 2026-04-27 10:10 | 57.21840 | 145.46151 | 36127 ft | 486 kts | 219° |
| 2026-04-27 10:11 | 57.16445 | 145.38763 | 36127 ft | 486 kts | 219° |
| 2026-04-27 10:11 | 57.11017 | 145.31358 | 36128 ft | 486 kts | 219° |
| 2026-04-27 10:12 | 57.05578 | 145.23968 | 36129 ft | 486 kts | 218° |
| 2026-04-27 10:12 | 57.00135 | 145.16597 | 36129 ft | 486 kts | 218° |
| 2026-04-27 10:13 | 56.94694 | 145.09255 | 36131 ft | 485 kts | 218° |
| 2026-04-27 10:13 | 56.89290 | 145.01998 | 36128 ft | 484 kts | 218° |
| 2026-04-27 10:14 | 56.83859 | 144.94723 | 36133 ft | 484 kts | 218° |
| 2026-04-27 10:14 | 56.78423 | 144.87473 | 36133 ft | 484 kts | 218° |
| 2026-04-27 10:15 | 56.72959 | 144.80296 | 36149 ft | 484 kts | 218° |
| 2026-04-27 10:15 | 56.67502 | 144.73116 | 36138 ft | 484 kts | 218° |
| 2026-04-27 10:16 | 56.62056 | 144.65940 | 36139 ft | 484 kts | 218° |
| 2026-04-27 10:16 | 56.56607 | 144.58890 | 36140 ft | 484 kts | 217° |
| 2026-04-27 10:17 | 56.51104 | 144.51867 | 36143 ft | 484 kts | 217° |
| 2026-04-27 10:17 | 56.45595 | 144.44852 | 36143 ft | 484 kts | 217° |
| 2026-04-27 10:18 | 56.40094 | 144.37857 | 36122 ft | 484 kts | 217° |
| 2026-04-27 10:18 | 56.34605 | 144.30903 | 36139 ft | 480 kts | 217° |
| 2026-04-27 10:19 | 56.29139 | 144.24004 | 36143 ft | 480 kts | 217° |
| 2026-04-27 10:19 | 56.23662 | 144.17118 | 36144 ft | 480 kts | 217° |
| 2026-04-27 10:20 | 56.18185 | 144.10255 | 36147 ft | 480 kts | 217° |
| 2026-04-27 10:20 | 56.12701 | 144.03410 | 36146 ft | 480 kts | 217° |
| 2026-04-27 10:21 | 56.07212 | 143.96580 | 36144 ft | 480 kts | 217° |
| 2026-04-27 10:21 | 56.01758 | 143.89823 | 36145 ft | 479 kts | 217° |
| 2026-04-27 10:22 | 55.96276 | 143.83046 | 36146 ft | 479 kts | 217° |
| 2026-04-27 10:22 | 55.90777 | 143.76307 | 36132 ft | 480 kts | 217° |
| 2026-04-27 10:23 | 55.85263 | 143.69611 | 36147 ft | 480 kts | 216° |
| 2026-04-27 10:23 | 55.79762 | 143.62912 | 36142 ft | 478 kts | 217° |
| 2026-04-27 10:24 | 55.74309 | 143.56271 | 36142 ft | 478 kts | 217° |
| 2026-04-27 10:24 | 55.68827 | 143.49615 | 36144 ft | 478 kts | 217° |
| 2026-04-27 10:25 | 55.63334 | 143.42964 | 36155 ft | 478 kts | 216° |
| 2026-04-27 10:25 | 55.57844 | 143.36340 | 36156 ft | 478 kts | 216° |
| 2026-04-27 10:26 | 55.52350 | 143.29742 | 36158 ft | 478 kts | 216° |
| 2026-04-27 10:26 | 55.46848 | 143.23153 | 36143 ft | 477 kts | 216° |
| 2026-04-27 10:27 | 55.41347 | 143.16590 | 36133 ft | 478 kts | 216° |
| 2026-04-27 10:27 | 55.35842 | 143.10042 | 36151 ft | 478 kts | 216° |
| 2026-04-27 10:28 | 55.30336 | 143.03518 | 36153 ft | 478 kts | 216° |
| 2026-04-27 10:28 | 55.24827 | 142.97013 | 36146 ft | 477 kts | 216° |
| 2026-04-27 10:29 | 55.19334 | 142.90642 | 36146 ft | 477 kts | 215° |
| 2026-04-27 10:29 | 55.13793 | 142.84290 | 36146 ft | 476 kts | 215° |
| 2026-04-27 10:30 | 55.08254 | 142.77941 | 36148 ft | 476 kts | 215° |
| 2026-04-27 10:30 | 55.02716 | 142.71597 | 36148 ft | 476 kts | 215° |
| 2026-04-27 10:31 | 54.97176 | 142.65268 | 36145 ft | 476 kts | 215° |
| 2026-04-27 10:31 | 54.91638 | 142.58962 | 36135 ft | 476 kts | 215° |
| 2026-04-27 10:32 | 54.86091 | 142.52671 | 36142 ft | 476 kts | 214° |
| 2026-04-27 10:32 | 54.80536 | 142.46390 | 36141 ft | 476 kts | 214° |
| 2026-04-27 10:33 | 54.74981 | 142.40130 | 36143 ft | 477 kts | 214° |
| 2026-04-27 10:33 | 54.69429 | 142.33893 | 36140 ft | 475 kts | 214° |
| 2026-04-27 10:34 | 54.63919 | 142.27726 | 36139 ft | 474 kts | 214° |
| 2026-04-27 10:34 | 54.58372 | 142.21536 | 36141 ft | 475 kts | 214° |
| 2026-04-27 10:35 | 54.52830 | 142.15373 | 36140 ft | 475 kts | 214° |
| 2026-04-27 10:35 | 54.47264 | 142.09262 | 36136 ft | 474 kts | 213° |
| 2026-04-27 10:36 | 54.41701 | 142.03162 | 36129 ft | 474 kts | 214° |
| 2026-04-27 10:36 | 54.36142 | 141.97048 | 36138 ft | 475 kts | 214° |
| 2026-04-27 10:37 | 54.30583 | 141.90946 | 36137 ft | 474 kts | 214° |
| 2026-04-27 10:37 | 54.25017 | 141.84856 | 36138 ft | 475 kts | 214° |
| 2026-04-27 10:38 | 54.19491 | 141.78827 | 36131 ft | 475 kts | 213° |
| 2026-04-27 10:38 | 54.13932 | 141.72784 | 36135 ft | 473 kts | 213° |
| 2026-04-27 10:39 | 54.08380 | 141.66768 | 36134 ft | 473 kts | 213° |
| 2026-04-27 10:39 | 54.02823 | 141.60767 | 36124 ft | 473 kts | 213° |
| 2026-04-27 10:40 | 53.97272 | 141.54790 | 36129 ft | 473 kts | 213° |
| 2026-04-27 10:40 | 53.91712 | 141.48825 | 36127 ft | 473 kts | 213° |
| 2026-04-27 10:41 | 53.86147 | 141.42870 | 36131 ft | 473 kts | 213° |
| 2026-04-27 10:41 | 53.80574 | 141.36946 | 36131 ft | 473 kts | 213° |
| 2026-04-27 10:42 | 53.74991 | 141.31069 | 36123 ft | 473 kts | 213° |
| 2026-04-27 10:42 | 53.69405 | 141.25180 | 36128 ft | 473 kts | 213° |
| 2026-04-27 10:43 | 53.63832 | 141.19300 | 36121 ft | 473 kts | 213° |
| 2026-04-27 10:43 | 53.58305 | 141.13475 | 36125 ft | 470 kts | 213° |
| 2026-04-27 10:44 | 53.52754 | 141.07635 | 36129 ft | 471 kts | 213° |
| 2026-04-27 10:44 | 53.47191 | 141.01801 | 36128 ft | 471 kts | 213° |
| 2026-04-27 10:45 | 53.42532 | 140.96930 | 36120 ft | 471 kts | 213° |
| 2026-04-27 10:45 | 53.36955 | 140.91114 | 36118 ft | 473 kts | 213° |
| 2026-04-27 10:46 | 53.31367 | 140.85309 | 36120 ft | 473 kts | 212° |
| 2026-04-27 10:46 | 53.25773 | 140.79513 | 36113 ft | 473 kts | 212° |
| 2026-04-27 10:47 | 53.20182 | 140.73737 | 36116 ft | 473 kts | 212° |
| 2026-04-27 10:47 | 53.14594 | 140.67946 | 36115 ft | 473 kts | 214° |
| 2026-04-27 10:48 | 53.09226 | 140.61625 | 36116 ft | 472 kts | 217° |
| 2026-04-27 10:48 | 53.03987 | 140.55034 | 36113 ft | 472 kts | 218° |
| 2026-04-27 10:49 | 52.98747 | 140.48449 | 36110 ft | 472 kts | 218° |
| 2026-04-27 10:49 | 52.93495 | 140.41918 | 36109 ft | 471 kts | 217° |
| 2026-04-27 10:50 | 52.88247 | 140.35429 | 36102 ft | 471 kts | 217° |
| 2026-04-27 10:50 | 52.82982 | 140.28947 | 36100 ft | 472 kts | 217° |
| 2026-04-27 10:51 | 52.77714 | 140.22478 | 36097 ft | 471 kts | 217° |
| 2026-04-27 10:51 | 52.72447 | 140.16030 | 36100 ft | 471 kts | 217° |
| 2026-04-27 10:52 | 52.67157 | 140.09575 | 36086 ft | 473 kts | 217° |
| 2026-04-27 10:52 | 52.61823 | 140.03195 | 36081 ft | 474 kts | 215° |
| 2026-04-27 10:53 | 52.53662 | 139.94026 | 36083 ft | 473 kts | 215° |
| 2026-04-27 10:54 | 52.48221 | 139.87939 | 36078 ft | 472 kts | 214° |
| 2026-04-27 10:54 | 52.42806 | 139.81873 | 36076 ft | 471 kts | 215° |
| 2026-04-27 10:55 | 52.37403 | 139.75830 | 36081 ft | 470 kts | 215° |
| 2026-04-27 10:55 | 52.31985 | 139.69792 | 36072 ft | 471 kts | 215° |
| 2026-04-27 10:56 | 52.26563 | 139.63767 | 36075 ft | 472 kts | 214° |
| 2026-04-27 10:56 | 52.21135 | 139.57750 | 36067 ft | 471 kts | 214° |
| 2026-04-27 10:57 | 52.15712 | 139.51755 | 36073 ft | 471 kts | 214° |
| 2026-04-27 10:57 | 52.10275 | 139.45770 | 36068 ft | 472 kts | 214° |
| 2026-04-27 10:58 | 52.04837 | 139.39800 | 36072 ft | 471 kts | 214° |
| 2026-04-27 10:58 | 51.99397 | 139.33845 | 36067 ft | 472 kts | 214° |
| 2026-04-27 10:59 | 51.93944 | 139.27907 | 36069 ft | 473 kts | 214° |
| 2026-04-27 10:59 | 51.88466 | 139.22003 | 36065 ft | 472 kts | 214° |
| 2026-04-27 11:00 | 51.80279 | 139.13157 | 36066 ft | 473 kts | 214° |
| 2026-04-27 11:00 | 51.74805 | 139.07245 | 36065 ft | 474 kts | 214° |
| 2026-04-27 11:01 | 51.69329 | 139.01345 | 36065 ft | 473 kts | 214° |
| 2026-04-27 11:01 | 51.63856 | 138.95468 | 36058 ft | 473 kts | 214° |
| 2026-04-27 11:02 | 51.58377 | 138.89598 | 36058 ft | 474 kts | 214° |
| 2026-04-27 11:02 | 51.52881 | 138.83732 | 36054 ft | 474 kts | 214° |
| 2026-04-27 11:03 | 51.47388 | 138.77890 | 36060 ft | 473 kts | 214° |
| 2026-04-27 11:03 | 51.41889 | 138.72054 | 36054 ft | 474 kts | 214° |
| 2026-04-27 11:04 | 51.36388 | 138.66233 | 36058 ft | 473 kts | 214° |
| 2026-04-27 11:04 | 51.30913 | 138.60459 | 36053 ft | 469 kts | 214° |
| 2026-04-27 11:05 | 51.25466 | 138.54733 | 36055 ft | 470 kts | 213° |
| 2026-04-27 11:05 | 51.19985 | 138.49036 | 36057 ft | 471 kts | 213° |
| 2026-04-27 11:06 | 51.14501 | 138.43331 | 36043 ft | 471 kts | 213° |
| 2026-04-27 11:06 | 51.09018 | 138.37616 | 36044 ft | 471 kts | 213° |
| 2026-04-27 11:07 | 51.03528 | 138.31909 | 36039 ft | 472 kts | 213° |
| 2026-04-27 11:07 | 50.98031 | 138.26210 | 36041 ft | 472 kts | 213° |
| 2026-04-27 11:08 | 50.92532 | 138.20527 | 36034 ft | 471 kts | 214° |
| 2026-04-27 11:08 | 50.87114 | 138.14696 | 36024 ft | 472 kts | 217° |
| 2026-04-27 11:09 | 50.81912 | 138.08340 | 36016 ft | 473 kts | 219° |
| 2026-04-27 11:09 | 50.76790 | 138.01918 | 36026 ft | 471 kts | 219° |
| 2026-04-27 11:10 | 50.71618 | 137.95494 | 36019 ft | 470 kts | 218° |
| 2026-04-27 11:10 | 50.66493 | 137.89184 | 36010 ft | 470 kts | 218° |
| 2026-04-27 11:11 | 50.61330 | 137.82853 | 36005 ft | 471 kts | 218° |
| 2026-04-27 11:11 | 50.56154 | 137.76522 | 36004 ft | 471 kts | 218° |
| 2026-04-27 11:12 | 50.50975 | 137.70207 | 36012 ft | 471 kts | 218° |
| 2026-04-27 11:12 | 50.45796 | 137.63911 | 35996 ft | 470 kts | 218° |
| 2026-04-27 11:13 | 50.40608 | 137.57664 | 35991 ft | 471 kts | 217° |
| 2026-04-27 11:13 | 50.35255 | 137.51742 | 35995 ft | 471 kts | 215° |
| 2026-04-27 11:14 | 50.29837 | 137.45945 | 35987 ft | 473 kts | 215° |
| 2026-04-27 11:14 | 50.24407 | 137.40118 | 35830 ft | 475 kts | 215° |
| 2026-04-27 11:15 | 50.21692 | 137.37198 | 35454 ft | 472 kts | 215° |
| 2026-04-27 11:15 | 50.19000 | 137.34303 | 35017 ft | 468 kts | 215° |
| 2026-04-27 11:15 | 50.16315 | 137.31418 | 34475 ft | 469 kts | 215° |
| 2026-04-27 11:15 | 50.13630 | 137.28534 | 33936 ft | 469 kts | 215° |
| 2026-04-27 11:16 | 50.10949 | 137.25660 | 33346 ft | 467 kts | 215° |
| 2026-04-27 11:16 | 50.08265 | 137.22804 | 32800 ft | 467 kts | 214° |
| 2026-04-27 11:16 | 50.05566 | 137.19960 | 32260 ft | 469 kts | 214° |
| 2026-04-27 11:16 | 50.02862 | 137.17121 | 31727 ft | 469 kts | 214° |
| 2026-04-27 11:17 | 50.00151 | 137.14280 | 31195 ft | 471 kts | 214° |
| 2026-04-27 11:17 | 49.97428 | 137.11426 | 30667 ft | 473 kts | 214° |
| 2026-04-27 11:17 | 49.94695 | 137.08563 | 30130 ft | 475 kts | 214° |
| 2026-04-27 11:17 | 49.91948 | 137.05688 | 29466 ft | 476 kts | 214° |
| 2026-04-27 11:18 | 49.89203 | 137.02819 | 28834 ft | 477 kts | 214° |
| 2026-04-27 11:18 | 49.86440 | 136.99934 | 28228 ft | 480 kts | 214° |
| 2026-04-27 11:18 | 49.83662 | 136.97035 | 27628 ft | 481 kts | 214° |
| 2026-04-27 11:18 | 49.80880 | 136.94137 | 27031 ft | 483 kts | 214° |
| 2026-04-27 11:19 | 49.78087 | 136.91234 | 26442 ft | 483 kts | 214° |
| 2026-04-27 11:19 | 49.75312 | 136.88352 | 25844 ft | 479 kts | 214° |
| 2026-04-27 11:19 | 49.72556 | 136.85492 | 25263 ft | 474 kts | 214° |
| 2026-04-27 11:19 | 49.69832 | 136.82671 | 24690 ft | 469 kts | 214° |
| 2026-04-27 11:20 | 49.67136 | 136.79885 | 24108 ft | 463 kts | 214° |
| 2026-04-27 11:20 | 49.64472 | 136.77134 | 23536 ft | 458 kts | 214° |
| 2026-04-27 11:20 | 49.61856 | 136.74438 | 22894 ft | 453 kts | 214° |
| 2026-04-27 11:20 | 49.59245 | 136.71751 | 22294 ft | 447 kts | 214° |
| 2026-04-27 11:21 | 49.56679 | 136.69110 | 21749 ft | 440 kts | 214° |
| 2026-04-27 11:21 | 49.54193 | 136.66561 | 21205 ft | 417 kts | 215° |
| 2026-04-27 11:21 | 49.51753 | 136.64058 | 20693 ft | 420 kts | 215° |
| 2026-04-27 11:21 | 49.49338 | 136.61584 | 20181 ft | 415 kts | 214° |
| 2026-04-27 11:22 | 49.46946 | 136.59137 | 19675 ft | 411 kts | 214° |
| 2026-04-27 11:22 | 49.44621 | 136.56723 | 19170 ft | 407 kts | 217° |
| 2026-04-27 11:22 | 49.42428 | 136.53962 | 18642 ft | 405 kts | 223° |
| 2026-04-27 11:22 | 49.40413 | 136.50994 | 18090 ft | 401 kts | 226° |
| 2026-04-27 11:23 | 49.38470 | 136.47950 | 17521 ft | 396 kts | 227° |
| 2026-04-27 11:23 | 49.36564 | 136.44917 | 16969 ft | 393 kts | 227° |
| 2026-04-27 11:23 | 49.34670 | 136.41910 | 16459 ft | 391 kts | 227° |
| 2026-04-27 11:23 | 49.32781 | 136.38932 | 15942 ft | 388 kts | 227° |
| 2026-04-27 11:24 | 49.30899 | 136.35988 | 15430 ft | 386 kts | 226° |
| 2026-04-27 11:24 | 49.29019 | 136.33061 | 14927 ft | 384 kts | 226° |
| 2026-04-27 11:24 | 49.27148 | 136.30158 | 14421 ft | 382 kts | 226° |
| 2026-04-27 11:24 | 49.25285 | 136.27269 | 13927 ft | 380 kts | 226° |
| 2026-04-27 11:25 | 49.23428 | 136.24397 | 13396 ft | 378 kts | 226° |
| 2026-04-27 11:25 | 49.21607 | 136.21587 | 12898 ft | 375 kts | 226° |
| 2026-04-27 11:25 | 49.19777 | 136.18763 | 12406 ft | 372 kts | 226° |
| 2026-04-27 11:25 | 49.17963 | 136.15970 | 11933 ft | 368 kts | 226° |
| 2026-04-27 11:26 | 49.16168 | 136.13210 | 11454 ft | 365 kts | 226° |
| 2026-04-27 11:26 | 49.14389 | 136.10479 | 11053 ft | 361 kts | 226° |
| 2026-04-27 11:26 | 49.13217 | 136.08680 | 10895 ft | 359 kts | 226° |
| 2026-04-27 11:26 | 49.11499 | 136.06049 | 10776 ft | 334 kts | 226° |
| 2026-04-27 11:27 | 49.09940 | 136.03665 | 10663 ft | 300 kts | 226° |
| 2026-04-27 11:27 | 49.08496 | 136.01456 | 10562 ft | 292 kts | 226° |
| 2026-04-27 11:27 | 49.07081 | 135.99291 | 10450 ft | 286 kts | 226° |
| 2026-04-27 11:27 | 49.05674 | 135.97137 | 10326 ft | 286 kts | 226° |
| 2026-04-27 11:28 | 49.04267 | 135.94987 | 10082 ft | 287 kts | 226° |
| 2026-04-27 11:28 | 49.02858 | 135.92836 | 9622 ft | 287 kts | 226° |
| 2026-04-27 11:28 | 49.01456 | 135.90695 | 9160 ft | 284 kts | 226° |
| 2026-04-27 11:28 | 49.00071 | 135.88584 | 8754 ft | 280 kts | 226° |
| 2026-04-27 11:29 | 48.98692 | 135.86485 | 8346 ft | 280 kts | 226° |
| 2026-04-27 11:29 | 48.97331 | 135.84379 | 8026 ft | 277 kts | 227° |
| 2026-04-27 11:29 | 48.95984 | 135.82259 | 7656 ft | 279 kts | 227° |
| 2026-04-27 11:29 | 48.94647 | 135.80138 | 7293 ft | 275 kts | 227° |
| 2026-04-27 11:30 | 48.93352 | 135.78083 | 7131 ft | 263 kts | 227° |
| 2026-04-27 11:30 | 48.92119 | 135.76132 | 6990 ft | 249 kts | 227° |
| 2026-04-27 11:30 | 48.90941 | 135.74281 | 6954 ft | 244 kts | 227° |
| 2026-04-27 11:30 | 48.89753 | 135.72419 | 6896 ft | 244 kts | 227° |
| 2026-04-27 11:31 | 48.88574 | 135.70571 | 6834 ft | 244 kts | 227° |
| 2026-04-27 11:31 | 48.87395 | 135.68721 | 6770 ft | 243 kts | 227° |
| 2026-04-27 11:31 | 48.86218 | 135.66878 | 6707 ft | 243 kts | 227° |
| 2026-04-27 11:31 | 48.85041 | 135.65037 | 6642 ft | 243 kts | 226° |
| 2026-04-27 11:32 | 48.83863 | 135.63198 | 6584 ft | 243 kts | 226° |
| 2026-04-27 11:32 | 48.82687 | 135.61355 | 6518 ft | 243 kts | 227° |
| 2026-04-27 11:32 | 48.81510 | 135.59517 | 6455 ft | 243 kts | 227° |
| 2026-04-27 11:32 | 48.80333 | 135.57679 | 6393 ft | 243 kts | 226° |
| 2026-04-27 11:33 | 48.79155 | 135.55842 | 6301 ft | 243 kts | 226° |
| 2026-04-27 11:33 | 48.77973 | 135.53999 | 6107 ft | 244 kts | 226° |
| 2026-04-27 11:33 | 48.76789 | 135.52153 | 5784 ft | 244 kts | 226° |
| 2026-04-27 11:33 | 48.75584 | 135.50348 | 5515 ft | 240 kts | 224° |
| 2026-04-27 11:34 | 48.74369 | 135.48580 | 5145 ft | 244 kts | 224° |
| 2026-04-27 11:34 | 48.73140 | 135.46800 | 4769 ft | 245 kts | 224° |
| 2026-04-27 11:34 | 48.71913 | 135.45024 | 4399 ft | 243 kts | 224° |
| 2026-04-27 11:34 | 48.70700 | 135.43268 | 4043 ft | 240 kts | 224° |
| 2026-04-27 11:35 | 48.69518 | 135.41558 | 3708 ft | 238 kts | 224° |
| 2026-04-27 11:35 | 48.68314 | 135.39845 | 3372 ft | 237 kts | 223° |
| 2026-04-27 11:35 | 48.67101 | 135.38164 | 3050 ft | 237 kts | 222° |
| 2026-04-27 11:35 | 48.65884 | 135.36479 | 2731 ft | 237 kts | 222° |
| 2026-04-27 11:36 | 48.64674 | 135.34807 | 2537 ft | 232 kts | 222° |
| 2026-04-27 11:36 | 48.63524 | 135.33223 | 2499 ft | 214 kts | 222° |
| 2026-04-27 11:36 | 48.62434 | 135.31721 | 2332 ft | 211 kts | 221° |
| 2026-04-27 11:36 | 48.61362 | 135.30252 | 2066 ft | 206 kts | 221° |
| 2026-04-27 11:37 | 48.60331 | 135.28840 | 1789 ft | 189 kts | 221° |
| 2026-04-27 11:37 | 48.59401 | 135.27567 | 1522 ft | 176 kts | 221° |
| 2026-04-27 11:37 | 48.58499 | 135.26332 | 1359 ft | 174 kts | 221° |
| 2026-04-27 11:37 | 48.57605 | 135.25109 | 1133 ft | 172 kts | 221° |
| 2026-04-27 11:38 | 48.56725 | 135.23908 | 951 ft | 169 kts | 223° |
| 2026-04-27 11:38 | 48.55865 | 135.22734 | 727 ft | 165 kts | 223° |
| 2026-04-27 11:38 | 48.55025 | 135.21587 | 522 ft | 160 kts | 221° |
| 2026-04-27 11:38 | 48.54206 | 135.20481 | 313 ft | 156 kts | 222° |
| 2026-04-27 11:39 | 48.53449 | 135.19441 | 256 ft | 129 kts | 223° |
| 2026-04-27 11:39 | 48.52884 | 135.18670 | 255 ft | 84 kts | 223° |